Wenonah, NJ

3:04 PM EST on January 27, 2015 (GMT -0500)
Philadelphia International | Change Station
CLOSE
Current Station
Airport
Location: Philadelphia,
Elevation: 26 ft
Nearby Weather Stations

Elev 26 ft 39.87 °N, 75.23 °W | Updated 10 minutes ago

Mostly Cloudy
Mostly Cloudy
34 °F
Feels Like 22 °F
N
21
Wind Variable Wind from NNW

Today
High -- | Low -- °F
--% Chance of Precip.
Yesterday
High -- | Low -- °F
Precip. -- in
7:13 AM 5:13 PM
First Quarter, 57% visible
Pressure 29.72 in
Visibility 10.0 miles
Clouds Few 5500 ft
Mostly Cloudy 15000 ft
Windchill 22 °F
Dew Point 11 °F
Humidity 38%
Rainfall 0.02 in
Snow Depth Not available.
UV 1 out of 12
Pollen .10 out of 12
Air Quality Not available.
Flu Activity Not available.
METAR KPHL 271954Z 34018KT 10SM FEW055 BKN150 01/M12 A2971 RMK AO2 SLP062 T00111117

More Conditions Fewer Conditions

Pressure 29.72 in
Visibility 10.0 miles
Clouds Few 5500 ft
Mostly Cloudy 15000 ft
Windchill 22 °F
Dew Point 11 °F
Humidity 38%
Rainfall 0.02 in
Snow Depth Not available.
UV 1 out of 12
Pollen .10 out of 12
Air Quality Not available.
Flu Activity Not available.
METAR KPHL 271954Z 34018KT 10SM FEW055 BKN150 01/M12 A2971 RMK AO2 SLP062 T00111117

More Conditions Fewer Conditions

10-Day Weather Forecast

Almanac

Astronomy

Jan. 27, 2015 Rise Set
Actual Time
Civil Twilight
Nautical Twilight
Astronomical Twilight
Moon
Length of Visible Light
Length of Day
Tomorrow will be .
, % of the Moon is Illuminated

Today's Extremes

State Highs State Lows

Community

WunderPhotos

Upload Photos

1,790,874 photos uploaded!

WunderBlogs® & News

Nearby

Air Quality

  Air Quality AQ Index Pollutant
Not available.

Snow Depth

Station Depth Elevation

Earthquake Activity

City Distance Mag. Time & Date
Minimum magnitude displayed is 2.5.

Coastal Water Temperatures

Place Temperature

Nearby Weather Stations